sensor_id;sensor_type;location;lat;lon;timestamp;temperature;humidity
65836;SHT30;52595;51.608;7.216;2023-06-14T00:02:13;17.68;57.75
65836;SHT30;52595;51.608;7.216;2023-06-14T00:04:38;17.62;57.59
65836;SHT30;52595;51.608;7.216;2023-06-14T00:07:07;17.63;57.26
65836;SHT30;52595;51.608;7.216;2023-06-14T00:09:35;17.61;57.37
65836;SHT30;52595;51.608;7.216;2023-06-14T00:12:01;17.58;57.38
65836;SHT30;52595;51.608;7.216;2023-06-14T00:14:26;17.53;57.57
65836;SHT30;52595;51.608;7.216;2023-06-14T00:16:52;17.42;57.88
65836;SHT30;52595;51.608;7.216;2023-06-14T00:19:24;17.38;57.60
65836;SHT30;52595;51.608;7.216;2023-06-14T00:21:49;17.39;57.85
65836;SHT30;52595;51.608;7.216;2023-06-14T00:24:17;17.45;57.27
65836;SHT30;52595;51.608;7.216;2023-06-14T00:26:42;17.45;57.44
65836;SHT30;52595;51.608;7.216;2023-06-14T00:29:07;17.36;57.60
65836;SHT30;52595;51.608;7.216;2023-06-14T00:31:33;17.28;57.69
65836;SHT30;52595;51.608;7.216;2023-06-14T00:33:58;17.31;57.46
65836;SHT30;52595;51.608;7.216;2023-06-14T00:36:23;17.29;57.49
65836;SHT30;52595;51.608;7.216;2023-06-14T00:38:49;17.28;57.55
65836;SHT30;52595;51.608;7.216;2023-06-14T00:41:14;17.21;57.81
65836;SHT30;52595;51.608;7.216;2023-06-14T00:43:40;17.15;57.94
65836;SHT30;52595;51.608;7.216;2023-06-14T00:46:05;17.11;58.05
65836;SHT30;52595;51.608;7.216;2023-06-14T00:48:31;17.12;57.59
65836;SHT30;52595;51.608;7.216;2023-06-14T00:50:57;17.12;57.72
65836;SHT30;52595;51.608;7.216;2023-06-14T00:53:23;17.05;57.79
65836;SHT30;52595;51.608;7.216;2023-06-14T00:55:50;17.10;57.80
65836;SHT30;52595;51.608;7.216;2023-06-14T00:58:15;16.97;58.12
65836;SHT30;52595;51.608;7.216;2023-06-14T01:00:41;16.92;58.24
65836;SHT30;52595;51.608;7.216;2023-06-14T01:03:07;16.83;58.37
65836;SHT30;52595;51.608;7.216;2023-06-14T01:05:33;16.77;58.65
65836;SHT30;52595;51.608;7.216;2023-06-14T01:08:31;16.77;58.69
65836;SHT30;52595;51.608;7.216;2023-06-14T01:11:03;16.71;58.62
65836;SHT30;52595;51.608;7.216;2023-06-14T01:13:43;16.73;58.58
65836;SHT30;52595;51.608;7.216;2023-06-14T01:16:11;16.65;58.71
65836;SHT30;52595;51.608;7.216;2023-06-14T01:18:37;16.64;58.72
65836;SHT30;52595;51.608;7.216;2023-06-14T01:21:03;16.61;58.97
65836;SHT30;52595;51.608;7.216;2023-06-14T01:23:32;16.57;58.98
65836;SHT30;52595;51.608;7.216;2023-06-14T01:25:58;16.52;59.07
65836;SHT30;52595;51.608;7.216;2023-06-14T01:28:24;16.47;59.16
65836;SHT30;52595;51.608;7.216;2023-06-14T01:30:53;16.43;59.61
65836;SHT30;52595;51.608;7.216;2023-06-14T01:33:21;16.34;59.79
65836;SHT30;52595;51.608;7.216;2023-06-14T01:35:50;16.27;59.95
65836;SHT30;52595;51.608;7.216;2023-06-14T01:38:17;16.27;59.85
65836;SHT30;52595;51.608;7.216;2023-06-14T01:40:44;16.24;60.22
65836;SHT30;52595;51.608;7.216;2023-06-14T01:43:11;16.22;59.99
65836;SHT30;52595;51.608;7.216;2023-06-14T01:45:40;16.17;60.26
65836;SHT30;52595;51.608;7.216;2023-06-14T01:48:05;16.09;60.38
65836;SHT30;52595;51.608;7.216;2023-06-14T01:50:31;16.08;60.41
65836;SHT30;52595;51.608;7.216;2023-06-14T01:52:57;16.06;60.48
65836;SHT30;52595;51.608;7.216;2023-06-14T01:55:23;16.00;60.51
65836;SHT30;52595;51.608;7.216;2023-06-14T01:57:50;15.95;60.76
65836;SHT30;52595;51.608;7.216;2023-06-14T02:00:16;15.93;60.92
65836;SHT30;52595;51.608;7.216;2023-06-14T02:02:43;15.88;60.73
65836;SHT30;52595;51.608;7.216;2023-06-14T02:05:09;15.86;60.94
65836;SHT30;52595;51.608;7.216;2023-06-14T02:07:35;15.89;60.82
65836;SHT30;52595;51.608;7.216;2023-06-14T02:10:01;15.83;61.02
65836;SHT30;52595;51.608;7.216;2023-06-14T02:12:26;15.83;61.06
65836;SHT30;52595;51.608;7.216;2023-06-14T02:14:52;15.75;61.18
65836;SHT30;52595;51.608;7.216;2023-06-14T02:17:17;15.83;61.03
65836;SHT30;52595;51.608;7.216;2023-06-14T02:19:42;15.82;61.17
65836;SHT30;52595;51.608;7.216;2023-06-14T02:22:08;15.75;61.33
65836;SHT30;52595;51.608;7.216;2023-06-14T02:24:33;15.75;61.21
65836;SHT30;52595;51.608;7.216;2023-06-14T02:26:59;15.68;61.51
65836;SHT30;52595;51.608;7.216;2023-06-14T02:29:25;15.65;61.67
65836;SHT30;52595;51.608;7.216;2023-06-14T02:31:50;15.68;61.57
65836;SHT30;52595;51.608;7.216;2023-06-14T02:34:16;15.65;61.77
65836;SHT30;52595;51.608;7.216;2023-06-14T02:36:45;15.58;61.67
65836;SHT30;52595;51.608;7.216;2023-06-14T02:39:12;15.59;61.76
65836;SHT30;52595;51.608;7.216;2023-06-14T02:41:38;15.57;61.80
65836;SHT30;52595;51.608;7.216;2023-06-14T02:44:04;15.51;61.92
65836;SHT30;52595;51.608;7.216;2023-06-14T02:46:29;15.49;61.96
65836;SHT30;52595;51.608;7.216;2023-06-14T02:48:55;15.49;61.98
65836;SHT30;52595;51.608;7.216;2023-06-14T02:51:20;15.48;62.04
65836;SHT30;52595;51.608;7.216;2023-06-14T02:53:45;15.49;62.07
65836;SHT30;52595;51.608;7.216;2023-06-14T02:56:11;15.38;62.36
65836;SHT30;52595;51.608;7.216;2023-06-14T02:58:37;15.39;62.25
65836;SHT30;52595;51.608;7.216;2023-06-14T03:01:04;15.34;62.39
65836;SHT30;52595;51.608;7.216;2023-06-14T03:03:30;15.37;62.55
65836;SHT30;52595;51.608;7.216;2023-06-14T03:05:56;15.31;62.75
65836;SHT30;52595;51.608;7.216;2023-06-14T03:08:22;15.31;62.60
65836;SHT30;52595;51.608;7.216;2023-06-14T03:10:52;15.32;62.54
65836;SHT30;52595;51.608;7.216;2023-06-14T03:13:18;15.38;62.36
65836;SHT30;52595;51.608;7.216;2023-06-14T03:15:47;15.37;62.52
65836;SHT30;52595;51.608;7.216;2023-06-14T03:18:14;15.28;62.73
65836;SHT30;52595;51.608;7.216;2023-06-14T03:20:40;15.25;62.84
65836;SHT30;52595;51.608;7.216;2023-06-14T03:23:08;15.28;62.75
65836;SHT30;52595;51.608;7.216;2023-06-14T03:25:33;15.24;62.92
65836;SHT30;52595;51.608;7.216;2023-06-14T03:28:01;15.23;62.98
65836;SHT30;52595;51.608;7.216;2023-06-14T03:30:26;15.21;63.04
65836;SHT30;52595;51.608;7.216;2023-06-14T03:32:52;15.21;63.16
65836;SHT30;52595;51.608;7.216;2023-06-14T03:35:18;15.20;63.38
65836;SHT30;52595;51.608;7.216;2023-06-14T03:37:44;15.20;63.12
65836;SHT30;52595;51.608;7.216;2023-06-14T03:40:12;15.18;63.36
65836;SHT30;52595;51.608;7.216;2023-06-14T03:42:39;15.18;63.45
65836;SHT30;52595;51.608;7.216;2023-06-14T03:45:05;15.12;63.61
65836;SHT30;52595;51.608;7.216;2023-06-14T03:47:31;15.08;63.70
65836;SHT30;52595;51.608;7.216;2023-06-14T03:49:57;15.07;64.14
65836;SHT30;52595;51.608;7.216;2023-06-14T03:52:22;15.05;64.15
65836;SHT30;52595;51.608;7.216;2023-06-14T03:54:48;15.01;64.38
65836;SHT30;52595;51.608;7.216;2023-06-14T03:57:15;14.97;64.50
65836;SHT30;52595;51.608;7.216;2023-06-14T03:59:40;15.01;64.43
65836;SHT30;52595;51.608;7.216;2023-06-14T04:02:07;15.03;64.47
65836;SHT30;52595;51.608;7.216;2023-06-14T04:04:34;15.03;64.56
65836;SHT30;52595;51.608;7.216;2023-06-14T04:07:01;15.07;64.75
65836;SHT30;52595;51.608;7.216;2023-06-14T04:09:29;15.10;64.56
65836;SHT30;52595;51.608;7.216;2023-06-14T04:11:55;15.04;64.93
65836;SHT30;52595;51.608;7.216;2023-06-14T04:14:21;15.08;64.63
65836;SHT30;52595;51.608;7.216;2023-06-14T04:16:47;15.07;64.81
65836;SHT30;52595;51.608;7.216;2023-06-14T04:19:13;15.10;65.03
65836;SHT30;52595;51.608;7.216;2023-06-14T04:21:39;15.11;65.02
65836;SHT30;52595;51.608;7.216;2023-06-14T04:24:04;15.14;64.88
65836;SHT30;52595;51.608;7.216;2023-06-14T04:26:30;15.20;64.80
65836;SHT30;52595;51.608;7.216;2023-06-14T04:29:01;15.21;65.01
65836;SHT30;52595;51.608;7.216;2023-06-14T04:31:28;15.21;65.12
65836;SHT30;52595;51.608;7.216;2023-06-14T04:33:55;15.21;65.35
65836;SHT30;52595;51.608;7.216;2023-06-14T04:36:21;15.25;65.44
65836;SHT30;52595;51.608;7.216;2023-06-14T04:38:47;15.25;65.35
65836;SHT30;52595;51.608;7.216;2023-06-14T04:41:14;15.32;65.35
65836;SHT30;52595;51.608;7.216;2023-06-14T04:43:41;15.34;65.31
65836;SHT30;52595;51.608;7.216;2023-06-14T04:46:08;15.38;65.37
65836;SHT30;52595;51.608;7.216;2023-06-14T04:48:39;15.42;65.44
65836;SHT30;52595;51.608;7.216;2023-06-14T04:51:09;15.41;65.46
65836;SHT30;52595;51.608;7.216;2023-06-14T04:53:34;15.45;65.60
65836;SHT30;52595;51.608;7.216;2023-06-14T04:56:00;15.54;65.28
65836;SHT30;52595;51.608;7.216;2023-06-14T04:58:26;15.57;65.39
65836;SHT30;52595;51.608;7.216;2023-06-14T05:00:52;15.66;65.42
65836;SHT30;52595;51.608;7.216;2023-06-14T05:03:18;15.75;64.88
65836;SHT30;52595;51.608;7.216;2023-06-14T05:05:46;15.82;64.84
65836;SHT30;52595;51.608;7.216;2023-06-14T05:08:11;15.90;64.60
65836;SHT30;52595;51.608;7.216;2023-06-14T05:10:37;15.95;64.67
65836;SHT30;52595;51.608;7.216;2023-06-14T05:13:02;16.05;64.30
65836;SHT30;52595;51.608;7.216;2023-06-14T05:15:28;16.12;64.52
65836;SHT30;52595;51.608;7.216;2023-06-14T05:17:54;16.17;64.82
65836;SHT30;52595;51.608;7.216;2023-06-14T05:20:24;16.20;64.14
65836;SHT30;52595;51.608;7.216;2023-06-14T05:22:51;16.24;64.49
65836;SHT30;52595;51.608;7.216;2023-06-14T05:25:18;16.33;64.41
65836;SHT30;52595;51.608;7.216;2023-06-14T05:27:44;16.37;64.37
65836;SHT30;52595;51.608;7.216;2023-06-14T05:30:10;16.44;64.36
65836;SHT30;52595;51.608;7.216;2023-06-14T05:32:35;16.54;64.17
65836;SHT30;52595;51.608;7.216;2023-06-14T05:35:01;16.64;63.37
65836;SHT30;52595;51.608;7.216;2023-06-14T05:37:26;16.65;64.00
65836;SHT30;52595;51.608;7.216;2023-06-14T05:39:51;16.73;63.79
65836;SHT30;52595;51.608;7.216;2023-06-14T05:42:17;16.78;63.76
65836;SHT30;52595;51.608;7.216;2023-06-14T05:44:42;16.84;63.87
65836;SHT30;52595;51.608;7.216;2023-06-14T05:47:08;16.94;62.98
65836;SHT30;52595;51.608;7.216;2023-06-14T05:49:33;17.05;62.88
65836;SHT30;52595;51.608;7.216;2023-06-14T05:51:58;17.11;62.19
65836;SHT30;52595;51.608;7.216;2023-06-14T05:54:24;17.19;62.19
65836;SHT30;52595;51.608;7.216;2023-06-14T05:56:49;17.24;62.33
65836;SHT30;52595;51.608;7.216;2023-06-14T05:59:14;17.31;61.92
65836;SHT30;52595;51.608;7.216;2023-06-14T06:01:40;17.35;62.43
65836;SHT30;52595;51.608;7.216;2023-06-14T06:04:05;17.42;61.84
65836;SHT30;52595;51.608;7.216;2023-06-14T06:06:31;17.49;61.87
65836;SHT30;52595;51.608;7.216;2023-06-14T06:08:57;17.50;62.30
65836;SHT30;52595;51.608;7.216;2023-06-14T06:11:23;17.62;62.06
65836;SHT30;52595;51.608;7.216;2023-06-14T06:13:48;17.62;61.44
65836;SHT30;52595;51.608;7.216;2023-06-14T06:16:14;17.73;61.21
65836;SHT30;52595;51.608;7.216;2023-06-14T06:18:40;17.80;61.04
65836;SHT30;52595;51.608;7.216;2023-06-14T06:21:05;17.90;60.47
65836;SHT30;52595;51.608;7.216;2023-06-14T06:23:31;17.97;60.33
65836;SHT30;52595;51.608;7.216;2023-06-14T06:25:57;18.02;60.09
65836;SHT30;52595;51.608;7.216;2023-06-14T06:28:22;18.09;60.45
65836;SHT30;52595;51.608;7.216;2023-06-14T06:30:47;18.07;60.72
65836;SHT30;52595;51.608;7.216;2023-06-14T06:33:13;18.06;61.63
65836;SHT30;52595;51.608;7.216;2023-06-14T06:35:39;18.16;61.69
65836;SHT30;52595;51.608;7.216;2023-06-14T06:38:04;18.23;60.87
65836;SHT30;52595;51.608;7.216;2023-06-14T06:40:30;18.38;59.83
65836;SHT30;52595;51.608;7.216;2023-06-14T06:42:55;18.38;59.25
65836;SHT30;52595;51.608;7.216;2023-06-14T06:45:21;18.54;59.27
65836;SHT30;52595;51.608;7.216;2023-06-14T06:47:48;18.58;58.54
65836;SHT30;52595;51.608;7.216;2023-06-14T06:50:13;18.63;58.95
65836;SHT30;52595;51.608;7.216;2023-06-14T06:52:39;18.69;57.96
65836;SHT30;52595;51.608;7.216;2023-06-14T06:55:05;18.68;57.64
65836;SHT30;52595;51.608;7.216;2023-06-14T06:57:30;18.69;58.68
65836;SHT30;52595;51.608;7.216;2023-06-14T06:59:57;18.79;58.74
65836;SHT30;52595;51.608;7.216;2023-06-14T07:02:22;18.89;57.98
65836;SHT30;52595;51.608;7.216;2023-06-14T07:04:47;18.91;56.91
65836;SHT30;52595;51.608;7.216;2023-06-14T07:07:13;18.95;57.29
65836;SHT30;52595;51.608;7.216;2023-06-14T07:09:38;18.98;57.41
65836;SHT30;52595;51.608;7.216;2023-06-14T07:12:04;19.09;57.20
65836;SHT30;52595;51.608;7.216;2023-06-14T07:14:29;19.20;56.66
65836;SHT30;52595;51.608;7.216;2023-06-14T07:16:55;19.16;56.14
65836;SHT30;52595;51.608;7.216;2023-06-14T07:19:21;19.19;56.91
65836;SHT30;52595;51.608;7.216;2023-06-14T07:21:46;19.18;56.37
65836;SHT30;52595;51.608;7.216;2023-06-14T07:24:12;19.29;56.42
65836;SHT30;52595;51.608;7.216;2023-06-14T07:26:37;19.32;55.63
65836;SHT30;52595;51.608;7.216;2023-06-14T07:29:03;19.33;55.65
65836;SHT30;52595;51.608;7.216;2023-06-14T07:31:28;19.36;56.41
65836;SHT30;52595;51.608;7.216;2023-06-14T07:33:54;19.40;56.25
65836;SHT30;52595;51.608;7.216;2023-06-14T07:36:19;19.56;56.45
65836;SHT30;52595;51.608;7.216;2023-06-14T07:38:46;19.60;55.99
65836;SHT30;52595;51.608;7.216;2023-06-14T07:41:11;19.63;55.81
65836;SHT30;52595;51.608;7.216;2023-06-14T07:43:36;19.77;55.43
65836;SHT30;52595;51.608;7.216;2023-06-14T07:46:02;19.89;55.63
65836;SHT30;52595;51.608;7.216;2023-06-14T07:48:27;19.86;56.73
65836;SHT30;52595;51.608;7.216;2023-06-14T07:50:53;19.96;56.02
65836;SHT30;52595;51.608;7.216;2023-06-14T07:53:18;20.04;55.69
65836;SHT30;52595;51.608;7.216;2023-06-14T07:55:44;20.01;55.30
65836;SHT30;52595;51.608;7.216;2023-06-14T07:58:09;19.97;55.91
65836;SHT30;52595;51.608;7.216;2023-06-14T08:00:36;20.04;55.20
65836;SHT30;52595;51.608;7.216;2023-06-14T08:03:01;20.01;54.96
65836;SHT30;52595;51.608;7.216;2023-06-14T08:05:27;20.16;55.47
65836;SHT30;52595;51.608;7.216;2023-06-14T08:07:53;20.16;53.55
65836;SHT30;52595;51.608;7.216;2023-06-14T08:10:19;20.17;52.97
65836;SHT30;52595;51.608;7.216;2023-06-14T08:12:45;20.20;52.37
65836;SHT30;52595;51.608;7.216;2023-06-14T08:15:10;20.21;52.14
65836;SHT30;52595;51.608;7.216;2023-06-14T08:17:36;20.25;52.36
65836;SHT30;52595;51.608;7.216;2023-06-14T08:20:02;20.24;51.06
65836;SHT30;52595;51.608;7.216;2023-06-14T08:22:29;20.37;52.11
65836;SHT30;52595;51.608;7.216;2023-06-14T08:24:57;20.34;51.67
65836;SHT30;52595;51.608;7.216;2023-06-14T08:27:23;20.37;51.38
65836;SHT30;52595;51.608;7.216;2023-06-14T08:29:48;20.41;51.40
65836;SHT30;52595;51.608;7.216;2023-06-14T08:32:14;20.48;51.51
65836;SHT30;52595;51.608;7.216;2023-06-14T08:34:39;20.52;51.50
65836;SHT30;52595;51.608;7.216;2023-06-14T08:37:05;20.52;51.50
65836;SHT30;52595;51.608;7.216;2023-06-14T08:39:31;20.48;50.26
65836;SHT30;52595;51.608;7.216;2023-06-14T08:41:57;20.49;50.84
65836;SHT30;52595;51.608;7.216;2023-06-14T08:44:23;20.54;51.20
65836;SHT30;52595;51.608;7.216;2023-06-14T08:46:48;20.63;50.91
65836;SHT30;52595;51.608;7.216;2023-06-14T08:49:16;20.65;50.47
65836;SHT30;52595;51.608;7.216;2023-06-14T08:51:43;20.74;49.65
65836;SHT30;52595;51.608;7.216;2023-06-14T08:54:11;20.82;48.61
65836;SHT30;52595;51.608;7.216;2023-06-14T08:56:38;20.85;48.78
65836;SHT30;52595;51.608;7.216;2023-06-14T08:59:04;20.84;48.47
65836;SHT30;52595;51.608;7.216;2023-06-14T09:01:37;20.75;48.46
65836;SHT30;52595;51.608;7.216;2023-06-14T09:04:02;20.89;49.08
65836;SHT30;52595;51.608;7.216;2023-06-14T09:06:30;20.92;49.16
65836;SHT30;52595;51.608;7.216;2023-06-14T09:08:57;21.00;49.71
65836;SHT30;52595;51.608;7.216;2023-06-14T09:11:22;21.09;49.50
65836;SHT30;52595;51.608;7.216;2023-06-14T09:13:49;21.12;48.51
65836;SHT30;52595;51.608;7.216;2023-06-14T09:16:16;21.26;48.78
65836;SHT30;52595;51.608;7.216;2023-06-14T09:18:44;21.22;49.33
65836;SHT30;52595;51.608;7.216;2023-06-14T09:21:11;21.16;49.39
65836;SHT30;52595;51.608;7.216;2023-06-14T09:23:37;21.29;48.85
65836;SHT30;52595;51.608;7.216;2023-06-14T09:26:23;21.28;48.70
65836;SHT30;52595;51.608;7.216;2023-06-14T09:28:50;21.50;48.57
65836;SHT30;52595;51.608;7.216;2023-06-14T09:31:20;21.51;49.09
65836;SHT30;52595;51.608;7.216;2023-06-14T09:33:46;21.47;48.50
65836;SHT30;52595;51.608;7.216;2023-06-14T09:36:17;21.59;48.36
65836;SHT30;52595;51.608;7.216;2023-06-14T09:38:52;21.60;47.67
65836;SHT30;52595;51.608;7.216;2023-06-14T09:41:18;21.67;47.93
65836;SHT30;52595;51.608;7.216;2023-06-14T09:43:45;21.77;48.08
65836;SHT30;52595;51.608;7.216;2023-06-14T09:46:12;21.76;48.29
65836;SHT30;52595;51.608;7.216;2023-06-14T09:48:37;21.87;47.75
65836;SHT30;52595;51.608;7.216;2023-06-14T09:51:09;21.84;48.62
65836;SHT30;52595;51.608;7.216;2023-06-14T09:53:36;21.96;47.15
65836;SHT30;52595;51.608;7.216;2023-06-14T09:56:02;22.05;46.86
65836;SHT30;52595;51.608;7.216;2023-06-14T09:58:29;22.14;47.47
65836;SHT30;52595;51.608;7.216;2023-06-14T10:00:56;22.28;47.35
65836;SHT30;52595;51.608;7.216;2023-06-14T10:03:28;22.25;47.23
65836;SHT30;52595;51.608;7.216;2023-06-14T10:05:55;22.28;46.98
65836;SHT30;52595;51.608;7.216;2023-06-14T10:08:27;22.27;46.57
65836;SHT30;52595;51.608;7.216;2023-06-14T10:10:55;22.28;47.10
65836;SHT30;52595;51.608;7.216;2023-06-14T10:13:21;22.38;47.23
65836;SHT30;52595;51.608;7.216;2023-06-14T10:18:49;22.69;46.55
65836;SHT30;52595;51.608;7.216;2023-06-14T10:21:23;22.68;46.51
65836;SHT30;52595;51.608;7.216;2023-06-14T10:23:51;22.65;46.77
65836;SHT30;52595;51.608;7.216;2023-06-14T10:26:21;22.65;46.99
65836;SHT30;52595;51.608;7.216;2023-06-14T10:28:56;22.84;46.77
65836;SHT30;52595;51.608;7.216;2023-06-14T10:31:23;22.88;46.43
65836;SHT30;52595;51.608;7.216;2023-06-14T10:34:04;23.12;46.44
65836;SHT30;52595;51.608;7.216;2023-06-14T10:36:30;23.34;46.63
65836;SHT30;52595;51.608;7.216;2023-06-14T10:39:13;23.39;46.75
65836;SHT30;52595;51.608;7.216;2023-06-14T10:41:40;23.36;46.29
65836;SHT30;52595;51.608;7.216;2023-06-14T10:46:38;23.51;46.41
65836;SHT30;52595;51.608;7.216;2023-06-14T10:49:04;23.38;45.62
65836;SHT30;52595;51.608;7.216;2023-06-14T10:51:38;23.56;45.80
65836;SHT30;52595;51.608;7.216;2023-06-14T10:54:11;23.94;45.93
65836;SHT30;52595;51.608;7.216;2023-06-14T10:56:37;24.00;45.93
65836;SHT30;52595;51.608;7.216;2023-06-14T10:59:02;24.26;45.62
65836;SHT30;52595;51.608;7.216;2023-06-14T11:04:20;25.13;43.62
65836;SHT30;52595;51.608;7.216;2023-06-14T11:06:47;25.59;43.34
65836;SHT30;52595;51.608;7.216;2023-06-14T11:11:42;25.81;41.74
65836;SHT30;52595;51.608;7.216;2023-06-14T11:14:09;26.29;42.33
65836;SHT30;52595;51.608;7.216;2023-06-14T11:16:36;26.56;41.79
65836;SHT30;52595;51.608;7.216;2023-06-14T11:19:02;26.89;40.93
65836;SHT30;52595;51.608;7.216;2023-06-14T11:21:28;27.36;40.97
65836;SHT30;52595;51.608;7.216;2023-06-14T11:23:56;27.65;40.38
65836;SHT30;52595;51.608;7.216;2023-06-14T11:26:26;27.27;39.36
65836;SHT30;52595;51.608;7.216;2023-06-14T11:28:55;27.29;40.13
65836;SHT30;52595;51.608;7.216;2023-06-14T11:31:22;27.50;39.15
65836;SHT30;52595;51.608;7.216;2023-06-14T11:33:49;27.95;38.80
65836;SHT30;52595;51.608;7.216;2023-06-14T11:36:15;28.51;38.64
65836;SHT30;52595;51.608;7.216;2023-06-14T11:38:41;28.73;39.01
65836;SHT30;52595;51.608;7.216;2023-06-14T11:41:06;28.76;38.08
65836;SHT30;52595;51.608;7.216;2023-06-14T11:43:31;29.14;37.93
65836;SHT30;52595;51.608;7.216;2023-06-14T11:45:58;29.17;37.72
65836;SHT30;52595;51.608;7.216;2023-06-14T11:48:38;29.19;37.50
65836;SHT30;52595;51.608;7.216;2023-06-14T11:51:04;28.75;37.86
65836;SHT30;52595;51.608;7.216;2023-06-14T11:53:30;29.10;37.17
65836;SHT30;52595;51.608;7.216;2023-06-14T11:55:56;28.44;37.68
65836;SHT30;52595;51.608;7.216;2023-06-14T11:58:22;28.65;37.33
65836;SHT30;52595;51.608;7.216;2023-06-14T12:00:51;28.93;37.28
65836;SHT30;52595;51.608;7.216;2023-06-14T12:03:17;28.95;37.14
65836;SHT30;52595;51.608;7.216;2023-06-14T12:05:42;29.75;36.48
65836;SHT30;52595;51.608;7.216;2023-06-14T12:08:09;29.95;35.54
65836;SHT30;52595;51.608;7.216;2023-06-14T12:10:41;30.21;35.08
65836;SHT30;52595;51.608;7.216;2023-06-14T12:13:09;30.18;35.23
65836;SHT30;52595;51.608;7.216;2023-06-14T12:15:35;30.53;35.50
65836;SHT30;52595;51.608;7.216;2023-06-14T12:18:01;30.77;34.42
65836;SHT30;52595;51.608;7.216;2023-06-14T12:20:30;30.46;35.12
65836;SHT30;52595;51.608;7.216;2023-06-14T12:22:58;30.93;35.46
65836;SHT30;52595;51.608;7.216;2023-06-14T12:25:35;29.26;36.04
65836;SHT30;52595;51.608;7.216;2023-06-14T12:28:06;29.62;35.68
65836;SHT30;52595;51.608;7.216;2023-06-14T12:30:32;29.98;35.33
65836;SHT30;52595;51.608;7.216;2023-06-14T12:32:57;30.22;34.50
65836;SHT30;52595;51.608;7.216;2023-06-14T12:35:22;30.32;34.70
65836;SHT30;52595;51.608;7.216;2023-06-14T12:37:48;30.28;34.84
65836;SHT30;52595;51.608;7.216;2023-06-14T12:40:14;31.07;34.57
65836;SHT30;52595;51.608;7.216;2023-06-14T12:42:40;31.28;34.16
65836;SHT30;52595;51.608;7.216;2023-06-14T12:45:06;31.60;32.96
65836;SHT30;52595;51.608;7.216;2023-06-14T12:47:32;31.54;33.61
65836;SHT30;52595;51.608;7.216;2023-06-14T12:49:57;31.51;33.81
65836;SHT30;52595;51.608;7.216;2023-06-14T12:52:23;31.45;33.83
65836;SHT30;52595;51.608;7.216;2023-06-14T12:54:48;31.40;33.50
65836;SHT30;52595;51.608;7.216;2023-06-14T12:57:14;31.34;34.31
65836;SHT30;52595;51.608;7.216;2023-06-14T12:59:39;30.53;34.34
65836;SHT30;52595;51.608;7.216;2023-06-14T13:02:12;29.82;35.36
65836;SHT30;52595;51.608;7.216;2023-06-14T13:04:37;30.91;34.84
65836;SHT30;52595;51.608;7.216;2023-06-14T13:07:03;31.65;34.19
65836;SHT30;52595;51.608;7.216;2023-06-14T13:09:29;31.45;33.71
65836;SHT30;52595;51.608;7.216;2023-06-14T13:11:54;31.47;34.38
65836;SHT30;52595;51.608;7.216;2023-06-14T13:14:20;32.31;32.67
65836;SHT30;52595;51.608;7.216;2023-06-14T13:16:45;32.13;33.29
65836;SHT30;52595;51.608;7.216;2023-06-14T13:19:11;31.55;33.32
65836;SHT30;52595;51.608;7.216;2023-06-14T13:21:36;31.82;32.56
65836;SHT30;52595;51.608;7.216;2023-06-14T13:24:01;31.06;33.74
65836;SHT30;52595;51.608;7.216;2023-06-14T13:26:27;31.16;34.03
65836;SHT30;52595;51.608;7.216;2023-06-14T13:28:52;31.64;33.20
65836;SHT30;52595;51.608;7.216;2023-06-14T13:31:18;31.67;31.97
65836;SHT30;52595;51.608;7.216;2023-06-14T13:33:43;31.92;32.58
65836;SHT30;52595;51.608;7.216;2023-06-14T13:36:09;31.11;33.28
65836;SHT30;52595;51.608;7.216;2023-06-14T13:38:35;31.34;33.26
65836;SHT30;52595;51.608;7.216;2023-06-14T13:41:00;31.61;32.91
65836;SHT30;52595;51.608;7.216;2023-06-14T13:43:26;31.72;32.27
65836;SHT30;52595;51.608;7.216;2023-06-14T13:45:51;31.48;33.39
65836;SHT30;52595;51.608;7.216;2023-06-14T13:48:17;31.26;33.47
65836;SHT30;52595;51.608;7.216;2023-06-14T13:50:42;30.97;33.36
65836;SHT30;52595;51.608;7.216;2023-06-14T13:53:07;31.10;33.57
65836;SHT30;52595;51.608;7.216;2023-06-14T13:55:33;31.82;32.66
65836;SHT30;52595;51.608;7.216;2023-06-14T13:57:58;31.61;32.57
65836;SHT30;52595;51.608;7.216;2023-06-14T14:00:24;31.34;32.82
65836;SHT30;52595;51.608;7.216;2023-06-14T14:02:49;31.44;33.07
65836;SHT30;52595;51.608;7.216;2023-06-14T14:05:16;31.78;32.89
65836;SHT30;52595;51.608;7.216;2023-06-14T14:07:41;31.67;32.85
65836;SHT30;52595;51.608;7.216;2023-06-14T14:10:07;31.54;33.09
65836;SHT30;52595;51.608;7.216;2023-06-14T14:12:33;31.27;32.99
65836;SHT30;52595;51.608;7.216;2023-06-14T14:14:59;30.77;34.04
65836;SHT30;52595;51.608;7.216;2023-06-14T14:17:24;31.45;33.19
65836;SHT30;52595;51.608;7.216;2023-06-14T14:19:50;32.04;32.33
65836;SHT30;52595;51.608;7.216;2023-06-14T14:22:15;32.83;31.51
65836;SHT30;52595;51.608;7.216;2023-06-14T14:24:41;32.96;31.27
65836;SHT30;52595;51.608;7.216;2023-06-14T14:27:06;32.08;32.46
65836;SHT30;52595;51.608;7.216;2023-06-14T14:29:33;31.37;33.31
65836;SHT30;52595;51.608;7.216;2023-06-14T14:31:58;31.54;33.11
65836;SHT30;52595;51.608;7.216;2023-06-14T14:34:24;32.43;32.12
65836;SHT30;52595;51.608;7.216;2023-06-14T14:36:50;31.86;32.39
65836;SHT30;52595;51.608;7.216;2023-06-14T14:39:15;31.11;33.88
65836;SHT30;52595;51.608;7.216;2023-06-14T14:41:41;31.64;32.54
65836;SHT30;52595;51.608;7.216;2023-06-14T14:44:06;31.71;32.22
65836;SHT30;52595;51.608;7.216;2023-06-14T14:46:32;31.67;32.02
65836;SHT30;52595;51.608;7.216;2023-06-14T14:48:59;32.25;31.53
65836;SHT30;52595;51.608;7.216;2023-06-14T14:51:24;31.27;32.74
65836;SHT30;52595;51.608;7.216;2023-06-14T14:53:49;31.62;32.14
65836;SHT30;52595;51.608;7.216;2023-06-14T14:56:15;31.64;31.80
65836;SHT30;52595;51.608;7.216;2023-06-14T14:58:40;31.52;32.76
65836;SHT30;52595;51.608;7.216;2023-06-14T15:01:06;31.75;32.46
65836;SHT30;52595;51.608;7.216;2023-06-14T15:03:32;30.14;34.50
65836;SHT30;52595;51.608;7.216;2023-06-14T15:05:57;30.89;33.40
65836;SHT30;52595;51.608;7.216;2023-06-14T15:08:23;30.79;33.48
65836;SHT30;52595;51.608;7.216;2023-06-14T15:10:48;31.48;32.25
65836;SHT30;52595;51.608;7.216;2023-06-14T15:13:14;31.50;32.84
65836;SHT30;52595;51.608;7.216;2023-06-14T15:15:39;32.19;32.03
65836;SHT30;52595;51.608;7.216;2023-06-14T15:18:05;31.93;32.40
65836;SHT30;52595;51.608;7.216;2023-06-14T15:20:30;31.17;32.81
65836;SHT30;52595;51.608;7.216;2023-06-14T15:22:56;30.86;33.46
65836;SHT30;52595;51.608;7.216;2023-06-14T15:25:28;31.26;32.54
65836;SHT30;52595;51.608;7.216;2023-06-14T15:27:54;31.61;31.72
65836;SHT30;52595;51.608;7.216;2023-06-14T15:30:20;31.88;31.42
65836;SHT30;52595;51.608;7.216;2023-06-14T15:32:46;31.48;32.05
65836;SHT30;52595;51.608;7.216;2023-06-14T15:35:11;32.12;31.84
65836;SHT30;52595;51.608;7.216;2023-06-14T15:37:37;32.72;31.56